Time,TemperatureF,DewpointF,PressureIn,WindDirection,WindDirectionDegrees,WindSpeedMPH,WindSpeedGustMPH,Humidity,HourlyPrecipIn,Conditions,Clouds,dailyrainin,SoftwareType,DateUTC
2013-05-12 00:10:00,59.1,53.0,30.12,NW,305,2.0,36.0,80,0.00,,,0.00,weatherlink.com 1.10,2013-05-12 05:10:00,
2013-05-12 00:25:00,59.0,53.0,30.11,NW,309,0.0,2.0,81,0.00,,,0.00,weatherlink.com 1.10,2013-05-12 05:25:00,
2013-05-12 00:40:00,58.5,53.0,30.11,NW,309,1.0,3.0,81,0.00,,,0.00,weatherlink.com 1.10,2013-05-12 05:40:00,
2013-05-12 00:55:00,58.8,52.0,30.11,NW,308,0.0,2.0,79,0.00,,,0.00,weatherlink.com 1.10,2013-05-12 05:55:00,
2013-05-12 01:10:00,58.7,52.0,30.11,NW,306,2.0,2.0,79,0.00,,,0.00,weatherlink.com 1.10,2013-05-12 06:10:00,
2013-05-12 01:25:00,58.6,52.0,30.10,NNW,331,0.0,2.0,79,0.00,,,0.00,weatherlink.com 1.10,2013-05-12 06:25:00,
2013-05-12 01:40:00,57.6,53.0,30.09,NNW,332,0.0,0.0,84,0.00,,,0.00,weatherlink.com 1.10,2013-05-12 06:40:00,
2013-05-12 01:55:00,56.5,51.0,30.08,NNW,332,0.0,0.0,83,0.00,,,0.00,weatherlink.com 1.10,2013-05-12 06:55:00,
2013-05-12 02:10:00,55.4,51.0,30.09,WNW,293,0.0,51.0,86,0.00,,,0.00,weatherlink.com 1.10,2013-05-12 07:10:00,
2013-05-12 02:25:00,55.1,50.0,30.10,WNW,295,0.0,2.0,84,0.00,,,0.00,weatherlink.com 1.10,2013-05-12 07:25:00,
2013-05-12 02:40:00,54.2,51.0,30.11,NW,307,0.0,1.0,87,0.00,,,0.00,weatherlink.com 1.10,2013-05-12 07:40:00,
2013-05-12 02:56:00,53.2,50.0,30.11,NW,306,0.0,1.0,89,0.00,,,0.00,weatherlink.com 1.10,2013-05-12 07:56:00,
2013-05-12 03:10:00,52.2,49.0,30.12,NW,306,0.0,0.0,90,0.00,,,0.00,weatherlink.com 1.10,2013-05-12 08:10:00,
2013-05-12 03:25:00,51.7,49.0,30.11,NW,307,0.0,0.0,91,0.00,,,0.00,weatherlink.com 1.10,2013-05-12 08:25:00,
2013-05-12 03:40:00,51.7,49.0,30.11,NW,306,0.0,1.0,91,0.00,,,0.00,weatherlink.com 1.10,2013-05-12 08:40:00,
2013-05-12 03:56:00,51.1,49.0,30.11,NW,307,0.0,1.0,91,0.00,,,0.00,weatherlink.com 1.10,2013-05-12 08:56:00,
2013-05-12 04:11:00,50.7,49.0,30.11,WSW,245,0.0,43.0,92,0.00,,,0.00,weatherlink.com 1.10,2013-05-12 09:11:00,
2013-05-12 04:26:00,50.7,48.0,30.11,SW,233,0.0,1.0,91,0.00,,,0.00,weatherlink.com 1.10,2013-05-12 09:26:00,
2013-05-12 04:41:00,50.1,48.0,30.11,SW,233,0.0,0.0,93,0.00,,,0.00,weatherlink.com 1.10,2013-05-12 09:41:00,
2013-05-12 04:56:00,50.1,48.0,30.10,SW,233,0.0,0.0,93,0.00,,,0.00,weatherlink.com 1.10,2013-05-12 09:56:00,
2013-05-12 05:11:00,50.0,48.0,30.11,SW,233,0.0,34.0,93,0.00,,,0.00,weatherlink.com 1.10,2013-05-12 10:11:00,
2013-05-12 05:26:00,50.3,48.0,30.11,SW,234,0.0,1.0,93,0.00,,,0.00,weatherlink.com 1.10,2013-05-12 10:26:00,
2013-05-12 05:41:00,50.4,49.0,30.11,SW,221,0.0,1.0,93,0.00,,,0.00,weatherlink.com 1.10,2013-05-12 10:41:00,
2013-05-12 05:56:00,50.7,49.0,30.11,SW,224,0.0,229.0,93,0.00,,,0.00,weatherlink.com 1.10,2013-05-12 10:56:00,
2013-05-12 06:11:00,50.8,49.0,30.11,SW,225,0.0,1.0,93,0.00,,,0.00,weatherlink.com 1.10,2013-05-12 11:11:00,
2013-05-12 06:26:00,50.6,49.0,30.12,SW,225,0.0,0.0,94,0.00,,,0.00,weatherlink.com 1.10,2013-05-12 11:26:00,
2013-05-12 06:41:00,50.9,49.0,30.12,SW,225,0.0,1.0,93,0.00,,,0.00,weatherlink.com 1.10,2013-05-12 11:41:00,
2013-05-12 06:56:00,51.0,49.0,30.13,SW,225,0.0,0.0,93,0.00,,,0.00,weatherlink.com 1.10,2013-05-12 11:56:00,
2013-05-12 07:11:00,51.9,50.0,30.15,SW,225,0.0,112.0,93,0.00,,,0.00,weatherlink.com 1.10,2013-05-12 12:11:00,
2013-05-12 07:26:00,53.6,51.0,30.15,NW,306,1.0,2.0,89,0.00,,,0.00,weatherlink.com 1.10,2013-05-12 12:26:00,
2013-05-12 07:41:00,55.0,52.0,30.15,WNW,300,0.0,2.0,88,0.00,,,0.00,weatherlink.com 1.10,2013-05-12 12:41:00,
2013-05-12 07:56:00,55.8,51.0,30.16,WNW,301,0.0,7.0,84,0.00,,,0.00,weatherlink.com 1.10,2013-05-12 12:56:00,
2013-05-12 08:11:00,57.1,52.0,30.18,WNW,301,0.0,83.0,83,0.00,,,0.00,weatherlink.com 1.10,2013-05-12 13:11:00,
2013-05-12 08:26:00,59.1,52.0,30.19,WNW,297,0.0,2.0,77,0.00,,,0.00,weatherlink.com 1.10,2013-05-12 13:26:00,
2013-05-12 08:41:00,60.0,53.0,30.21,NNE,12,0.0,27.0,79,0.00,,,0.00,weatherlink.com 1.10,2013-05-12 13:41:00,
2013-05-12 08:56:00,60.9,52.0,30.20,NE,38,0.0,64.0,73,0.00,,,0.00,weatherlink.com 1.10,2013-05-12 13:56:00,
2013-05-12 09:11:00,61.2,51.0,30.22,NW,308,1.0,4.0,70,0.00,,,0.00,weatherlink.com 1.10,2013-05-12 14:11:00,
2013-05-12 09:26:00,61.5,52.0,30.22,North,351,2.0,4.0,70,0.00,,,0.00,weatherlink.com 1.10,2013-05-12 14:26:00,
2013-05-12 09:41:00,61.8,53.0,30.23,ENE,63,1.0,3.0,72,0.00,,,0.00,weatherlink.com 1.10,2013-05-12 14:41:00,
2013-05-12 09:56:00,62.0,52.0,30.23,NNW,338,2.0,7.0,70,0.00,,,0.00,weatherlink.com 1.10,2013-05-12 14:56:00,
2013-05-12 10:11:00,62.8,52.0,30.23,East,82,2.0,5.0,69,0.00,,,0.00,weatherlink.com 1.10,2013-05-12 15:11:00,
2013-05-12 10:26:00,64.0,53.0,30.22,NNE,24,4.0,5.0,67,0.00,,,0.00,weatherlink.com 1.10,2013-05-12 15:26:00,
2013-05-12 10:41:00,65.3,52.0,30.21,NNE,27,4.0,6.0,63,0.00,,,0.00,weatherlink.com 1.10,2013-05-12 15:41:00,
2013-05-12 10:56:00,66.1,53.0,30.19,NE,35,8.0,9.0,63,0.00,,,0.00,weatherlink.com 1.10,2013-05-12 15:56:00,
2013-05-12 11:11:00,66.8,54.0,30.18,NNW,338,5.0,8.0,63,0.00,,,0.00,weatherlink.com 1.10,2013-05-12 16:11:00,
2013-05-12 11:26:00,66.9,54.0,30.17,NNW,330,9.0,14.0,63,0.00,,,0.00,weatherlink.com 1.10,2013-05-12 16:26:00,
2013-05-12 11:42:00,67.3,55.0,30.18,NW,315,4.0,14.0,64,0.00,,,0.00,weatherlink.com 1.10,2013-05-12 16:42:00,
2013-05-12 11:57:00,68.8,56.0,30.18,NNW,335,2.0,12.0,65,0.00,,,0.00,weatherlink.com 1.10,2013-05-12 16:57:00,
2013-05-12 12:12:00,69.6,53.0,30.18,NNE,32,6.0,14.0,56,0.00,,,0.00,weatherlink.com 1.10,2013-05-12 17:12:00,
2013-05-12 12:27:00,71.2,55.0,30.18,NW,322,4.0,8.0,56,0.00,,,0.00,weatherlink.com 1.10,2013-05-12 17:27:00,
2013-05-12 12:42:00,71.4,52.0,30.18,ENE,60,5.0,12.0,51,0.00,,,0.00,weatherlink.com 1.10,2013-05-12 17:42:00,
2013-05-12 12:57:00,71.7,54.0,30.18,NNW,346,2.0,8.0,53,0.00,,,0.00,weatherlink.com 1.10,2013-05-12 17:57:00,
2013-05-12 13:12:00,72.3,54.0,30.17,ENE,60,0.0,10.0,53,0.00,,,0.00,weatherlink.com 1.10,2013-05-12 18:12:00,
2013-05-12 13:27:00,72.8,55.0,30.17,North,354,2.0,10.0,54,0.00,,,0.00,weatherlink.com 1.10,2013-05-12 18:27:00,
2013-05-12 13:42:00,73.5,53.0,30.17,NW,326,3.0,9.0,49,0.00,,,0.00,weatherlink.com 1.10,2013-05-12 18:42:00,
2013-05-12 13:57:00,74.6,52.0,30.16,NNE,15,8.0,12.0,46,0.00,,,0.00,weatherlink.com 1.10,2013-05-12 18:57:00,
2013-05-12 14:12:00,74.0,55.0,30.16,NNW,333,5.0,10.0,51,0.00,,,0.00,weatherlink.com 1.10,2013-05-12 19:12:00,
2013-05-12 14:30:00,74.2,51.0,30.16,ENE,72,4.0,11.0,45,0.00,,,0.00,weatherlink.com 1.10,2013-05-12 19:30:00,
2013-05-12 14:42:00,73.9,51.0,30.16,SSW,195,4.0,7.0,44,0.00,,,0.00,weatherlink.com 1.10,2013-05-12 19:42:00,
2013-05-12 14:57:00,73.7,52.0,30.15,NW,322,1.0,7.0,46,0.00,,,0.00,weatherlink.com 1.10,2013-05-12 19:57:00,
2013-05-12 15:12:00,73.8,51.0,30.15,South,172,0.0,7.0,45,0.00,,,0.00,weatherlink.com 1.10,2013-05-12 20:12:00,
2013-05-12 15:27:00,74.3,49.0,30.14,NNE,18,3.0,9.0,41,0.00,,,0.00,weatherlink.com 1.10,2013-05-12 20:27:00,
2013-05-12 15:42:00,74.4,51.0,30.14,NE,43,2.0,6.0,44,0.00,,,0.00,weatherlink.com 1.10,2013-05-12 20:42:00,
2013-05-12 15:57:00,74.5,51.0,30.13,East,87,6.0,12.0,44,0.00,,,0.00,weatherlink.com 1.10,2013-05-12 20:57:00,
2013-05-12 16:12:00,74.4,48.0,30.12,NE,44,5.0,10.0,40,0.00,,,0.00,weatherlink.com 1.10,2013-05-12 21:12:00,
2013-05-12 16:27:00,74.8,47.0,30.12,ENE,71,4.0,11.0,38,0.00,,,0.00,weatherlink.com 1.10,2013-05-12 21:27:00,
2013-05-12 16:42:00,75.0,47.0,30.12,ENE,66,2.0,8.0,37,0.00,,,0.00,weatherlink.com 1.10,2013-05-12 21:42:00,
2013-05-12 16:57:00,76.2,53.0,30.11,NE,48,5.0,7.0,45,0.00,,,0.00,weatherlink.com 1.10,2013-05-12 21:57:00,
2013-05-12 17:12:00,75.4,47.0,30.11,ENE,65,6.0,12.0,37,0.00,,,0.00,weatherlink.com 1.10,2013-05-12 22:12:00,
2013-05-12 17:27:00,74.8,48.0,30.11,NE,54,4.0,8.0,39,0.00,,,0.00,weatherlink.com 1.10,2013-05-12 22:27:00,
2013-05-12 17:42:00,74.4,48.0,30.10,ENE,59,9.0,9.0,40,0.00,,,0.00,weatherlink.com 1.10,2013-05-12 22:42:00,
2013-05-12 17:57:00,74.1,45.0,30.10,NNE,18,6.0,9.0,36,0.00,,,0.00,weatherlink.com 1.10,2013-05-12 22:57:00,
2013-05-12 18:12:00,74.2,44.0,30.09,NE,54,6.0,11.0,34,0.00,,,0.00,weatherlink.com 1.10,2013-05-12 23:12:00,
2013-05-12 18:27:00,75.7,45.0,30.09,ENE,67,13.0,13.0,34,0.00,,,0.00,weatherlink.com 1.10,2013-05-12 23:27:00,
2013-05-12 18:42:00,75.5,46.0,30.09,ENE,60,5.0,10.0,35,0.00,,,0.00,weatherlink.com 1.10,2013-05-12 23:42:00,
2013-05-12 18:57:00,75.2,48.0,30.09,East,97,3.0,7.0,38,0.00,,,0.00,weatherlink.com 1.10,2013-05-12 23:57:00,
2013-05-12 19:13:00,75.1,49.0,30.09,NE,46,1.0,5.0,40,0.00,,,0.00,weatherlink.com 1.10,2013-05-13 00:13:00,
2013-05-12 19:28:00,73.7,49.0,30.10,East,87,4.0,7.0,42,0.00,,,0.00,weatherlink.com 1.10,2013-05-13 00:28:00,
2013-05-12 19:43:00,72.7,49.0,30.11,ESE,111,0.0,2.0,44,0.00,,,0.00,weatherlink.com 1.10,2013-05-13 00:43:00,
2013-05-12 19:58:00,71.5,50.0,30.11,ESE,108,0.0,1.0,47,0.00,,,0.00,weatherlink.com 1.10,2013-05-13 00:58:00,
2013-05-12 20:13:00,69.7,50.0,30.12,ESE,108,0.0,1.0,50,0.00,,,0.00,weatherlink.com 1.10,2013-05-13 01:13:00,
2013-05-12 20:28:00,66.4,51.0,30.12,ESE,107,0.0,1.0,59,0.00,,,0.00,weatherlink.com 1.10,2013-05-13 01:28:00,
2013-05-12 20:43:00,63.8,53.0,30.13,South,183,0.0,64.0,68,0.00,,,0.00,weatherlink.com 1.10,2013-05-13 01:43:00,
2013-05-12 20:58:00,62.0,52.0,30.14,South,183,0.0,0.0,69,0.00,,,0.00,weatherlink.com 1.10,2013-05-13 01:58:00,
2013-05-12 21:13:00,60.4,52.0,30.14,South,183,0.0,0.0,74,0.00,,,0.00,weatherlink.com 1.10,2013-05-13 02:13:00,
2013-05-12 21:28:00,59.0,51.0,30.14,South,183,0.0,0.0,76,0.00,,,0.00,weatherlink.com 1.10,2013-05-13 02:28:00,
2013-05-12 21:43:00,57.6,51.0,30.14,South,183,0.0,0.0,79,0.00,,,0.00,weatherlink.com 1.10,2013-05-13 02:43:00,
2013-05-12 21:58:00,56.8,52.0,30.15,SSW,208,0.0,1.0,83,0.00,,,0.00,weatherlink.com 1.10,2013-05-13 02:58:00,
2013-05-12 22:13:00,56.0,51.0,30.16,SSW,208,0.0,93.0,84,0.00,,,0.00,weatherlink.com 1.10,2013-05-13 03:13:00,
2013-05-12 22:28:00,55.1,51.0,30.16,SSW,208,0.0,0.0,86,0.00,,,0.00,weatherlink.com 1.10,2013-05-13 03:28:00,
2013-05-12 22:43:00,54.6,51.0,30.16,SSW,209,0.0,0.0,88,0.00,,,0.00,weatherlink.com 1.10,2013-05-13 03:43:00,
2013-05-12 22:58:00,53.9,50.0,30.17,SSW,208,0.0,0.0,87,0.00,,,0.00,weatherlink.com 1.10,2013-05-13 03:58:00,
2013-05-12 23:13:00,53.0,50.0,30.17,SSW,208,0.0,0.0,89,0.00,,,0.00,weatherlink.com 1.10,2013-05-13 04:13:00,
2013-05-12 23:28:00,52.5,49.0,30.17,SSW,208,0.0,0.0,89,0.00,,,0.00,weatherlink.com 1.10,2013-05-13 04:28:00,
2013-05-12 23:43:00,52.3,50.0,30.17,SSW,208,0.0,1.0,90,0.00,,,0.00,weatherlink.com 1.10,2013-05-13 04:43:00,
2013-05-12 23:58:00,51.8,49.0,30.17,SSW,208,0.0,1.0,90,0.00,,,0.00,weatherlink.com 1.10,2013-05-13 04:58:00,